Time;durP1;ratioP1;P1;durP2;ratioP2;P2;SDS_P1;SDS_P2;PMS_P1;PMS_P2;Temp;Humidity;BMP_temperature;BMP_pressure;BME280_temperature;BME280_humidity;BME280_pressure;Samples;Min_cycle;Max_cycle;Signal;HPM_P1;HPM_P2
2022/08/07 00:02:00;;;;;;;;;2.25;2.25;;;;;20.77;33.05;101797.00;5070600;28;71501;-44
2022/08/07 00:04:26;;;;;;;;;2.00;2.00;;;;;20.75;33.55;101799.78;5061409;28;45321;-44
2022/08/07 00:06:51;;;;;;;;;3.75;3.50;;;;;20.71;33.67;101794.69;5068996;27;45291;-46
2022/08/07 00:09:16;;;;;;;;;2.50;2.50;;;;;20.64;33.68;101805.63;5067898;28;45280;-44
2022/08/07 00:11:42;;;;;;;;;3.00;3.00;;;;;20.61;33.74;101799.59;5072113;27;45351;-43
2022/08/07 00:14:07;;;;;;;;;4.50;3.00;;;;;20.57;33.60;101800.69;5063798;27;68061;-42
2022/08/07 00:16:32;;;;;;;;;4.00;4.00;;;;;20.56;33.77;101799.84;5068735;27;45432;-43
2022/08/07 00:18:58;;;;;;;;;3.00;3.00;;;;;20.53;33.18;101793.81;5079195;27;61172;-44
2022/08/07 00:21:23;;;;;;;;;4.25;4.00;;;;;20.55;34.01;101797.25;5077877;27;49514;-43
2022/08/07 00:23:49;;;;;;;;;4.00;4.00;;;;;20.50;33.94;101789.50;5067849;27;45351;-43
2022/08/07 00:26:14;;;;;;;;;3.00;3.00;;;;;20.45;34.63;101792.44;5062388;27;45329;-43
2022/08/07 00:28:39;;;;;;;;;2.50;2.25;;;;;20.40;34.93;101790.94;5076801;28;58214;-43
2022/08/07 00:31:09;;;;;;;;;3.00;3.00;;;;;20.35;34.59;101785.84;5065498;27;73672;-44
2022/08/07 00:33:35;;;;;;;;;4.75;3.00;;;;;20.30;34.85;101782.56;5078417;27;45696;-43
2022/08/07 00:36:00;;;;;;;;;3.00;2.75;;;;;20.25;34.29;101782.78;5076574;27;45326;-46
2022/08/07 00:38:26;;;;;;;;;4.25;4.00;;;;;20.20;34.90;101771.56;5069993;27;45408;-44
2022/08/07 00:40:51;;;;;;;;;0.00;0.00;;;;;20.20;34.51;101778.66;5078624;27;46275;-43
2022/08/07 00:43:16;;;;;;;;;4.25;3.00;;;;;20.17;34.62;101773.50;5065780;27;45424;-47
2022/08/07 00:45:42;;;;;;;;;5.00;3.00;;;;;20.17;34.48;101773.50;5063282;27;65719;-43
2022/08/07 00:48:09;;;;;;;;;3.00;3.00;;;;;20.16;34.70;101772.63;5072755;27;45276;-43
2022/08/07 00:50:35;;;;;;;;;2.00;2.00;;;;;20.19;34.70;101774.31;5073557;27;46499;-43
2022/08/07 00:53:00;;;;;;;;;3.50;3.00;;;;;20.18;34.35;101769.91;5076722;27;45452;-46
2022/08/07 00:55:25;;;;;;;;;7.50;6.00;;;;;20.16;35.24;101766.47;5068231;28;68309;-46
2022/08/07 00:57:52;;;;;;;;;5.00;5.00;;;;;20.13;35.07;101770.13;5071136;28;66399;-45
2022/08/07 01:00:18;;;;;;;;;2.50;2.50;;;;;20.12;34.84;101763.13;5076324;28;46237;-44
2022/08/07 01:02:44;;;;;;;;;4.00;3.50;;;;;20.07;34.97;101751.84;5075803;27;45368;-44
2022/08/07 01:05:11;;;;;;;;;7.50;5.00;;;;;20.05;34.90;101753.72;5073512;28;47108;-45
2022/08/07 01:07:36;;;;;;;;;8.00;6.00;;;;;20.02;34.77;101748.56;5087242;27;45374;-44
2022/08/07 01:10:02;;;;;;;;;5.00;4.00;;;;;19.99;35.30;101754.03;5077396;27;45304;-45
2022/08/07 01:12:28;;;;;;;;;6.00;5.00;;;;;19.96;35.17;101757.72;5075140;27;45719;-46
2022/08/07 01:14:56;;;;;;;;;3.00;2.00;;;;;19.91;35.58;101751.75;5076242;27;45357;-45
2022/08/07 01:17:22;;;;;;;;;6.25;4.00;;;;;19.87;35.48;101748.41;5079256;27;45489;-45
2022/08/07 01:19:48;;;;;;;;;5.25;2.50;;;;;19.83;35.20;101751.28;5081137;27;59491;-44
2022/08/07 01:22:13;;;;;;;;;4.00;2.75;;;;;19.79;35.62;101752.38;5074152;27;45485;-46
2022/08/07 01:24:40;;;;;;;;;3.50;3.00;;;;;19.76;35.92;101748.09;5073200;27;45311;-44
2022/08/07 01:27:06;;;;;;;;;2.25;2.00;;;;;19.74;36.00;101741.97;5076441;28;45405;-48
2022/08/07 01:29:32;;;;;;;;;1.50;1.50;;;;;19.73;36.00;101740.22;5080664;27;48812;-46
2022/08/07 01:31:58;;;;;;;;;3.00;3.00;;;;;19.72;35.96;101741.16;5075896;27;45318;-48
2022/08/07 01:34:23;;;;;;;;;3.50;3.00;;;;;19.69;36.03;101736.88;5075932;27;45727;-46
2022/08/07 01:36:49;;;;;;;;;3.50;2.25;;;;;19.66;36.12;101742.31;5071177;27;72183;-45
2022/08/07 01:39:15;;;;;;;;;4.00;4.00;;;;;19.65;36.04;101745.91;5076605;28;45350;-45
2022/08/07 01:41:44;;;;;;;;;3.00;3.00;;;;;19.65;36.09;101747.72;5075512;27;60184;-48
2022/08/07 01:44:10;;;;;;;;;3.00;3.00;;;;;19.64;36.07;101751.31;5069887;28;45367;-46
2022/08/07 01:46:36;;;;;;;;;3.00;3.00;;;;;19.63;36.00;101747.78;5078603;27;45444;-47
2022/08/07 01:49:01;;;;;;;;;5.75;2.50;;;;;19.60;36.73;101753.25;5082491;27;45270;-48
2022/08/07 01:51:27;;;;;;;;;2.00;2.00;;;;;19.54;36.44;101756.19;5082028;27;66561;-47
2022/08/07 01:53:56;;;;;;;;;5.75;3.75;;;;;19.50;36.15;101749.31;5069506;27;65820;-46
2022/08/07 01:56:28;;;;;;;;;4.00;3.00;;;;;19.49;37.06;101750.25;5095068;27;45291;-47
2022/08/07 01:59:02;;;;;;;;;5.00;3.00;;;;;19.46;36.64;101747.72;5092783;27;46417;-46
2022/08/07 02:01:34;;;;;;;;;3.00;3.00;;;;;19.43;36.72;101747.91;5096057;27;45841;-46
2022/08/07 02:04:12;;;;;;;;;1.50;1.50;;;;;19.41;36.72;101747.13;5080984;27;45343;-47
2022/08/07 02:06:38;;;;;;;;;3.00;3.00;;;;;19.42;36.96;101749.66;5068057;27;45448;-44
2022/08/07 02:09:05;;;;;;;;;3.25;2.75;;;;;19.43;37.12;101747.91;5063268;28;51499;-42
2022/08/07 02:11:37;;;;;;;;;2.00;2.00;;;;;19.41;37.58;101745.31;5065650;27;45818;-42
2022/08/07 02:14:03;;;;;;;;;3.25;3.00;;;;;19.36;36.96;101752.63;5079117;27;45562;-43
2022/08/07 02:16:29;;;;;;;;;3.25;2.50;;;;;19.34;37.04;101754.50;5064658;27;72587;-45
2022/08/07 02:18:55;;;;;;;;;3.00;2.00;;;;;19.32;36.99;101757.22;5061688;28;76747;-43
2022/08/07 02:21:21;;;;;;;;;3.25;2.25;;;;;19.28;37.45;101758.31;5066858;27;59430;-45
2022/08/07 02:23:46;;;;;;;;;3.50;3.50;;;;;19.26;37.89;101756.66;5052110;28;66098;-44
2022/08/07 02:26:13;;;;;;;;;2.50;2.50;;;;;19.24;37.01;101755.88;5074411;27;72018;-44
2022/08/07 02:28:38;;;;;;;;;3.25;3.00;;;;;19.23;37.51;101751.47;5073872;28;47113;-44
2022/08/07 02:31:05;;;;;;;;;4.50;2.75;;;;;19.23;37.17;101754.13;5062908;27;45500;-45
2022/08/07 02:33:32;;;;;;;;;4.00;2.00;;;;;19.24;37.85;101747.91;5076469;28;45363;-46
2022/08/07 02:35:59;;;;;;;;;5.00;4.00;;;;;19.24;37.28;101756.72;5076715;28;45345;-45
2022/08/07 02:38:31;;;;;;;;;2.25;2.25;;;;;19.23;37.77;101743.53;5087401;27;46434;-48
2022/08/07 02:40:57;;;;;;;;;3.50;3.00;;;;;19.23;37.95;101748.81;5080306;27;45783;-44
2022/08/07 02:43:23;;;;;;;;;3.25;3.00;;;;;19.22;37.72;101739.16;5074671;27;45500;-44
2022/08/07 02:45:50;;;;;;;;;4.00;4.00;;;;;19.20;37.93;101746.34;5064209;27;45666;-47
2022/08/07 02:48:15;;;;;;;;;4.00;2.00;;;;;19.15;37.73;101742.09;5071565;28;73340;-48
2022/08/07 02:50:43;;;;;;;;;6.00;4.00;;;;;19.13;37.81;101743.97;5075778;27;45471;-44
2022/08/07 02:53:11;;;;;;;;;4.00;3.25;;;;;19.14;37.90;101744.81;5076624;28;45504;-46
2022/08/07 02:55:41;;;;;;;;;5.00;3.25;;;;;19.14;37.71;101747.47;5077813;27;45557;-45
2022/08/07 02:58:10;;;;;;;;;3.25;2.75;;;;;19.10;37.97;101737.94;5089734;27;46354;-47
2022/08/07 03:00:37;;;;;;;;;7.75;4.75;;;;;19.10;37.75;101732.63;5060614;28;45378;-44
2022/08/07 03:03:05;;;;;;;;;6.00;4.00;;;;;19.10;38.08;101727.31;5078423;27;45354;-45
2022/08/07 03:05:31;;;;;;;;;3.50;3.00;;;;;19.07;38.13;101728.34;5073242;28;45521;-44
2022/08/07 03:07:57;;;;;;;;;3.00;3.00;;;;;19.06;38.38;101734.56;5075376;27;47372;-44
2022/08/07 03:10:23;;;;;;;;;3.75;3.75;;;;;19.02;38.74;101726.84;5078637;28;58064;-46
2022/08/07 03:12:49;;;;;;;;;4.50;4.00;;;;;19.00;38.78;101726.03;5075498;28;45530;-48
2022/08/07 03:15:15;;;;;;;;;5.00;2.50;;;;;18.96;38.70;101725.31;5073254;27;45527;-46
2022/08/07 03:17:41;;;;;;;;;3.00;3.00;;;;;18.94;38.89;101730.69;5071093;27;46218;-46
2022/08/07 03:20:07;;;;;;;;;3.00;3.00;;;;;18.92;38.99;101726.41;5077265;28;45342;-45
2022/08/07 03:22:33;;;;;;;;;3.00;3.00;;;;;18.91;38.87;101728.19;5069519;27;45365;-46
2022/08/07 03:24:59;;;;;;;;;3.00;3.00;;;;;18.89;38.65;101730.06;5078311;27;45459;-43
2022/08/07 03:27:25;;;;;;;;;3.00;2.00;;;;;18.89;38.88;101731.84;5077735;27;45381;-44
2022/08/07 03:29:51;;;;;;;;;3.75;3.00;;;;;18.87;38.98;101729.25;5062644;28;46421;-45
2022/08/07 03:32:21;;;;;;;;;4.50;3.00;;;;;18.84;39.03;101729.41;5074732;27;68259;-49
2022/08/07 03:34:48;;;;;;;;;4.25;3.75;;;;;18.81;38.91;101734.81;5072222;27;45422;-49
2022/08/07 03:37:17;;;;;;;;;3.75;3.75;;;;;18.75;39.66;101725.34;5076308;27;45379;-50
2022/08/07 03:39:43;;;;;;;;;4.00;3.25;;;;;18.70;39.39;101732.66;5077289;28;45787;-51
2022/08/07 03:42:09;;;;;;;;;3.50;3.00;;;;;18.68;39.77;101733.63;5076181;28;45339;-49
2022/08/07 03:44:35;;;;;;;;;5.00;4.00;;;;;18.62;39.83;101736.56;5079672;28;45193;-51
2022/08/07 03:47:02;;;;;;;;;3.00;3.00;;;;;18.55;39.86;101731.53;5072124;28;45302;-52
2022/08/07 03:49:28;;;;;;;;;5.00;3.00;;;;;18.50;39.92;101735.31;5087304;27;45740;-46
2022/08/07 03:51:54;;;;;;;;;5.00;2.00;;;;;18.44;40.04;101735.59;5075299;27;45452;-46
2022/08/07 03:54:19;;;;;;;;;4.00;3.00;;;;;18.42;40.15;101734.81;5069634;28;72123;-47
2022/08/07 03:56:45;;;;;;;;;5.00;3.00;;;;;18.39;40.25;101735.78;5074457;27;69026;-51
2022/08/07 03:59:12;;;;;;;;;4.25;3.50;;;;;18.40;40.65;101738.38;5067039;27;52668;-47
2022/08/07 04:01:41;;;;;;;;;5.00;3.50;;;;;18.41;39.94;101736.59;5073790;28;45489;-50
2022/08/07 04:04:07;;;;;;;;;5.00;4.00;;;;;18.41;40.08;101736.59;5066008;27;45236;-46
2022/08/07 04:06:34;;;;;;;;;3.75;3.50;;;;;18.41;40.33;101736.59;5067646;27;47067;-48
2022/08/07 04:09:00;;;;;;;;;5.25;4.00;;;;;18.40;40.24;101733.09;5079646;27;45438;-46
2022/08/07 04:11:25;;;;;;;;;6.00;3.75;;;;;18.42;40.15;101732.16;5074710;27;45441;-46
2022/08/07 04:13:51;;;;;;;;;4.50;3.25;;;;;18.40;40.02;101733.09;5076595;27;67837;-48
2022/08/07 04:16:17;;;;;;;;;3.00;3.00;;;;;18.42;40.01;101730.38;5062001;28;75339;-51
2022/08/07 04:18:42;;;;;;;;;3.50;3.25;;;;;18.43;40.07;101724.13;5072876;27;69223;-46
2022/08/07 04:21:07;;;;;;;;;3.50;3.50;;;;;18.45;40.09;101730.25;5078197;27;67868;-45
2022/08/07 04:23:33;;;;;;;;;2.50;2.50;;;;;18.45;40.55;101737.31;5091688;27;45397;-45
2022/08/07 04:26:00;;;;;;;;;2.75;2.75;;;;;18.45;40.01;101734.66;5068360;28;46474;-46
2022/08/07 04:28:25;;;;;;;;;3.25;3.25;;;;;18.45;40.41;101734.66;5055017;27;45915;-47
2022/08/07 04:30:50;;;;;;;;;3.75;3.00;;;;;18.43;40.39;101726.78;5069320;27;66588;-45
2022/08/07 04:33:16;;;;;;;;;3.75;3.75;;;;;18.42;40.45;101734.81;5068393;27;69218;-45
2022/08/07 04:35:44;;;;;;;;;3.50;3.00;;;;;18.38;40.36;101728.78;5069588;27;46279;-46
2022/08/07 04:38:10;;;;;;;;;4.25;4.25;;;;;18.38;40.40;101734.09;5068550;28;45384;-47
2022/08/07 04:40:39;;;;;;;;;2.50;2.00;;;;;18.37;40.76;101730.56;5071835;28;45454;-47
2022/08/07 04:43:04;;;;;;;;;4.00;4.00;;;;;18.36;40.70;101731.50;5070585;27;45557;-45
2022/08/07 04:46:25;;;;;;;;;2.75;2.75;;;;;18.33;41.25;101742.22;5074639;27;45502;-45
2022/08/07 04:48:50;;;;;;;;;3.75;2.75;;;;;18.30;40.75;101737.06;5075618;27;46304;-44
2022/08/07 04:51:33;;;;;;;;;4.00;3.33;;;;;18.28;40.86;101732.78;5073854;27;45289;-46
2022/08/07 04:54:12;;;;;;;;;3.00;2.00;;;;;18.27;40.87;101736.34;5075887;28;45334;-45
2022/08/07 04:56:45;;;;;;;;;3.00;3.00;;;;;18.26;40.77;101739.94;5072198;27;46437;-45
2022/08/07 04:59:22;;;;;;;;;3.00;3.00;;;;;18.28;40.86;101753.97;5078296;27;45462;-44
2022/08/07 05:02:17;;;;;;;;;3.00;3.00;;;;;18.29;41.31;101745.97;5065342;28;45353;-45
2022/08/07 05:04:50;;;;;;;;;3.00;3.00;;;;;18.30;41.09;101745.00;5089643;27;45694;-45
2022/08/07 05:07:20;;;;;;;;;2.50;2.50;;;;;18.33;40.67;101755.47;5063076;28;46331;-49
2022/08/07 05:10:08;;;;;;;;;2.00;2.00;;;;;18.34;40.83;101758.97;5073966;27;45799;-50
2022/08/07 05:12:58;;;;;;;;;3.75;2.00;;;;;18.35;41.27;101766.03;5071769;28;45386;-47
2022/08/07 05:15:26;;;;;;;;;3.75;3.00;;;;;18.33;41.83;101763.44;5073892;27;45227;-49
2022/08/07 05:17:59;;;;;;;;;3.50;3.50;;;;;18.33;41.28;101765.22;5075584;27;46117;-49
2022/08/07 05:20:45;;;;;;;;;2.00;2.00;;;;;18.32;41.09;101772.28;5076835;27;45303;-48
2022/08/07 05:23:35;;;;;;;;;4.00;3.00;;;;;18.33;41.49;101771.38;5065762;28;45478;-47
2022/08/07 05:26:02;;;;;;;;;3.00;3.00;;;;;18.31;42.40;101772.34;5074493;28;45447;-48
2022/08/07 05:28:29;;;;;;;;;3.50;3.25;;;;;18.27;41.43;101779.56;5074384;28;46432;-48
2022/08/07 05:30:55;;;;;;;;;3.00;2.00;;;;;18.26;41.30;101777.03;5066344;28;45910;-47
2022/08/07 05:33:21;;;;;;;;;4.00;2.25;;;;;18.27;41.93;101786.69;5069642;27;68314;-48
2022/08/07 05:35:48;;;;;;;;;5.25;3.00;;;;;18.25;41.51;101786.75;5071514;27;45433;-49
2022/08/07 05:38:15;;;;;;;;;6.00;4.00;;;;;18.24;42.48;101790.34;5092259;27;46077;-52
2022/08/07 05:40:40;;;;;;;;;3.00;2.00;;;;;18.21;42.36;101786.00;5069761;27;62491;-51
2022/08/07 05:43:06;;;;;;;;;4.00;3.00;;;;;18.18;41.65;101780.84;5066652;28;45427;-50
2022/08/07 05:45:32;;;;;;;;;2.25;2.25;;;;;18.21;42.14;101782.50;5069962;28;65013;-49
2022/08/07 05:47:59;;;;;;;;;4.00;4.00;;;;;18.20;42.36;101779.00;5075073;27;68073;-46
2022/08/07 05:50:25;;;;;;;;;1.75;1.75;;;;;18.24;42.03;101781.50;5077465;27;45476;-51
2022/08/07 05:52:50;;;;;;;;;4.00;4.00;;;;;18.25;41.91;101778.78;5073611;28;51973;-46
2022/08/07 05:55:15;;;;;;;;;3.00;3.00;;;;;18.26;41.98;101788.47;5073674;27;45478;-45
2022/08/07 05:57:41;;;;;;;;;3.00;2.00;;;;;18.30;42.05;101781.25;5071001;28;46607;-48
2022/08/07 06:00:08;;;;;;;;;4.50;3.00;;;;;18.34;41.69;101783.72;5078126;27;45838;-45
2022/08/07 06:02:35;;;;;;;;;3.50;3.25;;;;;18.38;41.74;101784.44;5077469;27;45539;-47
2022/08/07 06:05:09;;;;;;;;;4.00;3.00;;;;;18.40;41.68;101782.59;5067913;27;45442;-48
2022/08/07 06:07:34;;;;;;;;;5.75;3.00;;;;;18.44;41.77;101793.91;5080613;27;46190;-47
2022/08/07 06:10:00;;;;;;;;;4.50;4.00;;;;;18.46;41.71;101784.09;5069408;28;45419;-49
2022/08/07 06:12:25;;;;;;;;;3.00;2.00;;;;;18.48;42.30;101787.56;5067346;28;45365;-47
2022/08/07 06:14:51;;;;;;;;;4.00;2.50;;;;;18.51;41.88;101790.06;5078001;28;45473;-49
2022/08/07 06:17:20;;;;;;;;;2.00;2.00;;;;;18.50;41.73;101781.28;5070179;27;75616;-46
2022/08/07 06:19:46;;;;;;;;;2.00;2.00;;;;;18.52;41.59;101783.81;5080737;27;45298;-49
2022/08/07 06:22:12;;;;;;;;;4.00;2.00;;;;;18.55;41.72;101789.00;5078387;27;45312;-52
2022/08/07 06:24:37;;;;;;;;;6.50;3.00;;;;;18.58;41.69;101784.44;5096353;27;45392;-51
2022/08/07 06:27:03;;;;;;;;;4.00;3.00;;;;;18.60;41.47;101787.00;5069880;27;45447;-50
2022/08/07 06:29:29;;;;;;;;;5.00;2.00;;;;;18.59;41.56;101779.97;5078705;27;45264;-51
2022/08/07 06:31:54;;;;;;;;;2.00;2.00;;;;;18.60;41.28;101781.72;5077268;28;45332;-49
2022/08/07 06:34:24;;;;;;;;;2.75;2.75;;;;;18.62;41.54;101776.34;5072643;27;45433;-48
2022/08/07 06:36:49;;;;;;;;;2.00;2.00;;;;;18.67;41.29;101784.97;5069202;28;45241;-48
2022/08/07 06:39:15;;;;;;;;;3.25;3.00;;;;;18.71;41.45;101778.59;5078785;27;45350;-48
2022/08/07 06:42:16;;;;;;;;;3.50;3.50;;;;;18.75;41.28;101777.50;5076011;27;67117;-47
2022/08/07 06:44:44;;;;;;;;;4.00;2.25;;;;;18.75;41.27;101781.03;5071729;27;45517;-47
2022/08/07 06:47:09;;;;;;;;;2.00;2.00;;;;;18.79;41.48;101779.97;5071603;27;45471;-49
2022/08/07 06:49:34;;;;;;;;;3.25;3.25;;;;;18.79;41.90;101787.91;5079591;28;48837;-48
2022/08/07 06:52:01;;;;;;;;;1.75;1.75;;;;;18.79;41.22;101789.72;5068207;27;45366;-50
2022/08/07 06:54:27;;;;;;;;;3.00;2.75;;;;;18.82;41.74;101786.09;5069888;27;45471;-48
2022/08/07 06:56:54;;;;;;;;;4.25;2.50;;;;;18.86;41.75;101777.94;5062579;27;46065;-46
2022/08/07 06:59:22;;;;;;;;;2.25;2.00;;;;;18.87;41.30;101782.28;5069267;28;45672;-47
2022/08/07 07:01:49;;;;;;;;;4.00;2.00;;;;;18.91;41.10;101781.25;5078884;27;45316;-46
2022/08/07 07:04:15;;;;;;;;;3.50;3.00;;;;;18.97;41.37;101778.31;5066512;27;45553;-49
2022/08/07 07:06:41;;;;;;;;;4.00;3.00;;;;;19.04;41.35;101786.84;5070078;27;46139;-45
2022/08/07 07:09:23;;;;;;;;;2.00;2.00;;;;;19.09;41.08;101790.16;5082512;27;45378;-46
2022/08/07 07:12:07;;;;;;;;;2.75;2.75;;;;;19.11;40.84;101793.59;5072952;27;45436;-47
2022/08/07 07:14:46;;;;;;;;;2.75;2.75;;;;;19.17;40.80;101787.13;5080552;27;45613;-47
2022/08/07 07:17:19;;;;;;;;;4.75;3.00;;;;;19.26;40.58;101793.81;5075781;27;46251;-48
2022/08/07 07:19:48;;;;;;;;;2.25;2.00;;;;;19.33;40.91;101784.63;5070108;28;45299;-46
2022/08/07 07:22:14;;;;;;;;;3.50;2.00;;;;;19.35;40.56;101788.94;5078997;27;45426;-46
2022/08/07 07:24:40;;;;;;;;;1.00;1.00;;;;;19.38;40.55;101795.03;5068480;28;45523;-46
2022/08/07 07:27:08;;;;;;;;;2.75;1.25;;;;;19.42;40.41;101788.63;5066942;27;46158;-46
2022/08/07 07:29:39;;;;;;;;;6.00;2.25;;;;;19.47;40.30;101781.31;5067256;27;45913;-46
2022/08/07 07:32:07;;;;;;;;;2.25;2.25;;;;;19.53;40.32;101781.91;5068035;28;45438;-46
2022/08/07 07:34:35;;;;;;;;;3.75;2.00;;;;;19.62;39.87;101783.25;5080620;27;45437;-47
2022/08/07 07:37:02;;;;;;;;;4.00;2.25;;;;;19.68;40.31;101782.94;5072693;27;45477;-46
2022/08/07 07:39:29;;;;;;;;;2.00;2.00;;;;;19.77;39.65;101783.47;5077725;27;45353;-47
2022/08/07 07:41:55;;;;;;;;;3.50;2.50;;;;;19.84;39.69;101784.88;5086186;27;45323;-47
2022/08/07 07:44:22;;;;;;;;;1.75;1.75;;;;;19.92;39.45;101778.25;5072682;27;45456;-46
2022/08/07 07:46:48;;;;;;;;;1.75;1.75;;;;;20.02;39.19;101775.13;5069833;28;46105;-45
2022/08/07 07:49:16;;;;;;;;;3.25;2.00;;;;;20.07;39.21;101770.47;5067375;28;45664;-46
2022/08/07 07:51:43;;;;;;;;;3.00;1.50;;;;;20.15;39.04;101780.69;5088894;27;45325;-46
2022/08/07 07:54:10;;;;;;;;;5.00;2.00;;;;;20.17;39.24;101770.84;5073853;28;45461;-46
2022/08/07 07:56:37;;;;;;;;;2.00;1.00;;;;;20.21;38.92;101783.06;5071881;27;46205;-49
2022/08/07 07:59:04;;;;;;;;;1.25;1.25;;;;;20.25;38.61;101772.16;5082054;27;45632;-47
2022/08/07 08:01:30;;;;;;;;;2.00;2.00;;;;;20.33;38.60;101774.44;5076099;28;45410;-46
2022/08/07 08:03:57;;;;;;;;;2.00;1.00;;;;;20.41;38.78;101766.06;5089555;27;45545;-46
2022/08/07 08:06:23;;;;;;;;;2.00;2.00;;;;;20.47;37.82;101758.63;5068188;28;46154;-47
2022/08/07 08:08:50;;;;;;;;;2.00;2.00;;;;;20.52;37.72;101766.34;5094658;27;45556;-46
2022/08/07 08:11:15;;;;;;;;;1.00;1.00;;;;;20.58;37.88;101765.19;5069949;27;64992;-51
2022/08/07 08:13:43;;;;;;;;;2.75;2.75;;;;;20.65;37.28;101769.28;5076407;27;45381;-47
2022/08/07 08:16:11;;;;;;;;;2.25;1.25;;;;;20.70;37.52;101764.59;5069913;27;45591;-48
2022/08/07 08:18:37;;;;;;;;;6.00;4.00;;;;;20.74;37.56;101758.16;5074648;28;45618;-47
2022/08/07 08:21:04;;;;;;;;;3.50;3.00;;;;;20.82;37.48;101758.59;5055954;28;45515;-50
2022/08/07 08:29:02;;;;;;;;;3.00;2.00;;;;;21.07;36.72;101753.72;5069588;28;45810;-49
2022/08/07 08:31:32;;;;;;;;;2.00;2.00;;;;;21.14;36.81;101750.66;5069481;27;45449;-46
2022/08/07 08:33:59;;;;;;;;;2.75;2.00;;;;;21.26;36.53;101753.56;5074136;27;45512;-47
2022/08/07 08:36:29;;;;;;;;;0.00;0.00;;;;;21.36;35.67;101744.13;5093117;27;64359;-48
2022/08/07 08:38:55;;;;;;;;;2.50;1.25;;;;;21.45;35.15;101748.09;5060349;28;45594;-47
2022/08/07 08:41:37;;;;;;;;;2.00;1.00;;;;;21.53;35.37;101749.41;5071705;28;45502;-48
2022/08/07 08:44:18;;;;;;;;;1.00;1.00;;;;;21.62;34.78;101750.69;5076494;27;45520;-50
2022/08/07 08:46:59;;;;;;;;;1.25;1.00;;;;;21.71;34.69;101746.59;5052500;28;46175;-48
2022/08/07 08:49:31;;;;;;;;;1.00;1.00;;;;;21.78;34.38;101738.19;5081406;27;45447;-49
2022/08/07 08:52:02;;;;;;;;;2.00;2.00;;;;;21.88;34.93;101738.47;5074988;27;45395;-53
2022/08/07 08:54:37;;;;;;;;;1.75;1.00;;;;;21.98;34.82;101737.00;5077176;27;45368;-50
2022/08/07 08:57:12;;;;;;;;;1.00;1.00;;;;;22.08;33.92;101736.44;5063376;28;46297;-46
2022/08/07 08:59:58;;;;;;;;;1.00;1.00;;;;;22.16;33.71;101736.84;5061863;27;45976;-48
2022/08/07 09:02:26;;;;;;;;;1.00;1.00;;;;;22.24;33.41;101736.38;5070856;27;45333;-50
2022/08/07 09:04:51;;;;;;;;;2.00;1.00;;;;;22.32;33.51;101731.50;5063314;27;45288;-49
2022/08/07 09:07:32;;;;;;;;;0.67;0.33;;;;;22.42;33.75;101726.47;5074564;27;46250;-50
2022/08/07 09:10:01;;;;;;;;;2.25;1.00;;;;;22.50;33.42;101729.50;5064570;28;45662;-50
2022/08/07 09:12:42;;;;;;;;;2.00;2.00;;;;;22.59;33.05;101730.75;5058705;28;45368;-51
2022/08/07 09:15:14;;;;;;;;;1.00;1.00;;;;;22.67;31.37;101731.13;5074823;28;45686;-51
2022/08/07 09:17:53;;;;;;;;;2.00;2.00;;;;;22.79;32.16;101741.06;5059078;28;48909;-53
2022/08/07 09:20:29;;;;;;;;;3.00;1.00;;;;;22.92;31.78;101736.63;5076230;27;45656;-51
2022/08/07 09:23:03;;;;;;;;;3.50;1.25;;;;;23.10;31.39;101733.78;5065657;28;45350;-48
2022/08/07 09:25:52;;;;;;;;;2.00;1.75;;;;;23.32;30.17;101733.28;5063658;28;45558;-49
2022/08/07 09:28:28;;;;;;;;;3.00;2.00;;;;;23.59;29.70;101740.44;5067289;28;46180;-48
2022/08/07 09:30:56;;;;;;;;;0.25;0.25;;;;;23.92;30.90;101737.34;5074576;28;45252;-51
2022/08/07 09:33:27;;;;;;;;;1.00;1.00;;;;;24.33;29.11;101741.69;5067742;28;45328;-52
2022/08/07 09:36:08;;;;;;;;;1.50;1.50;;;;;24.80;29.12;101728.63;5078040;27;45457;-52
2022/08/07 09:38:42;;;;;;;;;1.00;1.00;;;;;25.23;27.76;101743.41;5071539;27;45396;-49
2022/08/07 09:41:31;;;;;;;;;2.00;0.25;;;;;25.73;27.39;101745.06;5080775;27;45829;-48
2022/08/07 09:44:11;;;;;;;;;1.00;1.00;;;;;26.31;27.07;101737.09;5069402;27;45488;-49
2022/08/07 09:47:07;;;;;;;;;0.00;0.00;;;;;26.86;26.29;101737.25;5070933;27;45504;-49
2022/08/07 09:50:05;;;;;;;;;0.00;0.00;;;;;27.43;24.92;101724.59;5076037;27;46478;-52
2022/08/07 09:52:41;;;;;;;;;2.00;0.50;;;;;28.11;25.23;101723.44;5083047;27;45770;-50
2022/08/07 09:55:14;;;;;;;;;1.00;1.00;;;;;28.88;25.48;101724.81;5068039;27;45386;-50
2022/08/07 09:58:11;;;;;;;;;3.00;1.00;;;;;29.99;21.30;101722.81;5062465;28;45501;-51
2022/08/07 10:00:49;;;;;;;;;0.00;0.00;;;;;31.25;21.21;101718.75;5078279;27;45529;-47
2022/08/07 10:03:39;;;;;;;;;1.00;1.00;;;;;32.37;20.30;101720.06;5081945;28;45259;-52
2022/08/07 10:06:13;;;;;;;;;2.00;1.00;;;;;33.27;19.55;101712.28;5073577;27;45423;-48
2022/08/07 10:08:46;;;;;;;;;1.00;1.00;;;;;34.10;17.88;101713.13;5070257;27;45342;-48
2022/08/07 10:11:45;;;;;;;;;1.00;1.00;;;;;34.92;18.57;101712.91;5079298;27;46069;-52
2022/08/07 10:14:54;;;;;;;;;0.50;0.50;;;;;35.80;15.93;101710.75;5067689;28;45275;-50
2022/08/07 10:17:39;;;;;;;;;1.25;1.00;;;;;36.34;16.57;101701.53;5069327;27;45336;-52
2022/08/07 10:20:18;;;;;;;;;1.00;1.00;;;;;36.95;15.59;101704.00;5070030;28;45390;-50
2022/08/07 10:23:06;;;;;;;;;2.00;0.00;;;;;37.45;16.43;101700.53;5073301;28;45395;-53
2022/08/07 10:25:54;;;;;;;;;1.00;1.00;;;;;37.73;15.11;101689.66;5067910;27;45452;-53
2022/08/07 10:28:28;;;;;;;;;1.50;1.50;;;;;37.98;14.15;101696.38;5078848;27;45389;-53
2022/08/07 10:31:20;;;;;;;;;2.75;1.00;;;;;38.31;14.23;101695.72;5081264;27;45243;-54
2022/08/07 10:33:58;;;;;;;;;1.00;1.00;;;;;38.60;13.77;101687.47;5076293;27;45361;-51
2022/08/07 10:36:47;;;;;;;;;1.75;1.00;;;;;38.66;13.79;101683.94;5069510;27;45406;-49
2022/08/07 10:39:27;;;;;;;;;1.00;1.00;;;;;38.85;14.50;101683.16;5070752;27;45435;-48
2022/08/07 10:42:40;;;;;;;;;0.75;0.75;;;;;39.29;13.29;101691.88;5061775;28;45342;-49
2022/08/07 10:45:05;;;;;;;;;1.25;1.00;;;;;39.59;13.91;101686.00;5071514;28;45611;-49
2022/08/07 10:47:55;;;;;;;;;1.00;1.00;;;;;39.69;12.71;101683.69;5077725;27;45689;-50
2022/08/07 10:50:21;;;;;;;;;0.25;0.25;;;;;39.67;13.66;101678.41;5080441;27;45385;-48
2022/08/07 10:52:56;;;;;;;;;3.50;1.75;;;;;39.62;13.18;101672.72;5076298;27;45559;-52
2022/08/07 10:55:43;;;;;;;;;3.25;0.75;;;;;39.68;13.76;101671.91;5070575;27;45384;-51
2022/08/07 10:58:09;;;;;;;;;2.00;2.00;;;;;39.67;12.68;101672.09;5052429;28;45715;-53
2022/08/07 11:00:45;;;;;;;;;1.00;1.00;;;;;39.62;12.96;101672.72;5075072;27;45525;-50
2022/08/07 11:03:16;;;;;;;;;1.25;1.00;;;;;39.62;13.22;101667.25;5075453;27;45347;-50
2022/08/07 11:05:51;;;;;;;;;2.00;0.25;;;;;39.68;13.04;101666.41;5088085;27;46433;-50
2022/08/07 11:08:35;;;;;;;;;3.00;1.00;;;;;39.43;13.44;101660.69;5075332;28;45288;-51
2022/08/07 11:11:05;;;;;;;;;1.00;1.00;;;;;38.88;14.01;101658.09;5088041;27;45390;-53
2022/08/07 11:13:40;;;;;;;;;0.75;0.75;;;;;38.22;13.62;101647.75;5050971;28;46711;-50
2022/08/07 11:16:33;;;;;;;;;1.50;1.50;;;;;37.47;15.47;101652.00;5078177;27;46117;-49
2022/08/07 11:19:16;;;;;;;;;0.50;0.50;;;;;36.62;15.06;101649.00;5051395;28;45428;-51
2022/08/07 11:22:20;;;;;;;;;1.00;1.00;;;;;35.72;15.19;101631.88;5066443;28;45316;-48
2022/08/07 11:25:04;;;;;;;;;4.00;2.00;;;;;35.36;15.87;101636.09;5063285;28;45361;-53
2022/08/07 11:27:44;;;;;;;;;2.00;2.00;;;;;35.48;15.96;101636.47;5074360;27;48079;-50
2022/08/07 11:30:14;;;;;;;;;1.00;1.00;;;;;35.77;16.41;101618.53;5069774;28;45282;-53
2022/08/07 11:32:59;;;;;;;;;3.00;1.00;;;;;36.23;15.97;101623.81;5092444;27;45650;-49
2022/08/07 11:35:35;;;;;;;;;2.00;2.00;;;;;36.61;15.51;101630.97;5075261;27;45430;-48
2022/08/07 11:38:14;;;;;;;;;4.00;2.25;;;;;36.94;14.80;101627.78;5077059;27;47016;-51
2022/08/07 11:40:48;;;;;;;;;1.25;1.25;;;;;37.32;14.22;101613.88;5073697;27;45486;-50
2022/08/07 11:43:25;;;;;;;;;1.50;1.50;;;;;37.60;14.88;101619.34;5071396;27;45272;-51
2022/08/07 11:46:10;;;;;;;;;3.50;2.00;;;;;37.71;14.21;101627.03;5069693;27;45480;-53
2022/08/07 11:48:57;;;;;;;;;2.75;2.75;;;;;37.68;13.83;101616.50;5062072;27;46183;-51